createdAt,value
2022-08-29T00:01:54.048Z,10.84
2022-08-29T00:06:57.466Z,10.34
2022-08-29T00:12:01.942Z,9.59
2022-08-29T00:17:05.179Z,12.04
2022-08-29T00:22:08.167Z,11.42
2022-08-29T00:27:13.065Z,10.97
2022-08-29T00:32:16.012Z,11.31
2022-08-29T00:37:19.482Z,11.07
2022-08-29T00:42:23.992Z,10.75
2022-08-29T00:47:33.738Z,10.70
2022-08-29T00:52:39.964Z,11.02
2022-08-29T00:57:46.673Z,11.05
2022-08-29T01:02:51.024Z,10.83
2022-08-29T01:07:54.543Z,11.60
2022-08-29T01:12:59.140Z,11.06
2022-08-29T01:18:04.292Z,11.25
2022-08-29T01:23:12.352Z,11.80
2022-08-29T01:28:20.891Z,11.28
2022-08-29T01:33:23.843Z,12.34
2022-08-29T01:38:29.660Z,12.79
2022-08-29T01:43:40.168Z,13.71
2022-08-29T01:48:45.190Z,13.42
2022-08-29T01:53:48.106Z,12.26
2022-08-29T01:58:54.573Z,12.81
2022-08-29T02:03:59.169Z,12.88
2022-08-29T02:09:02.849Z,13.19
2022-08-29T02:14:15.438Z,13.62
2022-08-29T02:19:23.782Z,12.42
2022-08-29T02:24:26.772Z,13.41
2022-08-29T02:29:37.851Z,12.91
2022-08-29T02:34:47.730Z,13.71
2022-08-29T02:39:51.905Z,14.30
2022-08-29T02:44:56.266Z,15.00
2022-08-29T02:49:59.022Z,15.36
2022-08-29T02:55:02.116Z,14.95
2022-08-29T03:00:10.162Z,14.87
2022-08-29T03:05:13.516Z,15.52
2022-08-29T03:10:16.952Z,14.77
2022-08-29T03:15:22.246Z,15.78
2022-08-29T03:20:25.594Z,15.65
2022-08-29T03:25:28.546Z,15.14
2022-08-29T03:30:33.200Z,15.27
2022-08-29T03:35:36.145Z,15.34
2022-08-29T03:40:41.193Z,15.41
2022-08-29T03:45:45.690Z,15.48
2022-08-29T03:50:50.407Z,14.99
2022-08-29T03:55:56.165Z,14.48
2022-08-29T04:01:01.213Z,14.48
2022-08-29T04:06:04.255Z,15.41
2022-08-29T04:11:10.541Z,14.92
2022-08-29T04:16:17.600Z,14.23
2022-08-29T04:21:20.604Z,14.65
2022-08-29T04:26:39.209Z,14.43
2022-08-29T04:31:44.044Z,14.71
2022-08-29T04:36:47.447Z,14.13
2022-08-29T04:41:50.567Z,13.97
2022-08-29T04:46:55.097Z,14.26
2022-08-29T04:51:58.110Z,14.42
2022-08-29T04:57:05.097Z,14.30
2022-08-29T05:02:10.016Z,14.10
2022-08-29T05:07:13.040Z,15.03
2022-08-29T05:12:16.032Z,14.41
2022-08-29T05:17:20.377Z,13.94
2022-08-29T05:22:23.870Z,13.14
2022-08-29T05:27:26.623Z,13.55
2022-08-29T05:32:30.992Z,12.81
2022-08-29T05:37:34.193Z,12.44
2022-08-29T05:42:37.529Z,11.58
2022-08-29T05:47:42.200Z,11.22
2022-08-29T05:52:48.733Z,11.46
2022-08-29T05:57:54.840Z,11.88
2022-08-29T06:02:59.620Z,11.70
2022-08-29T06:08:02.863Z,12.11
2022-08-29T06:13:05.694Z,11.59
2022-08-29T06:18:10.336Z,11.23
2022-08-29T06:23:14.442Z,11.09
2022-08-29T06:28:23.722Z,10.98
2022-08-29T06:33:28.710Z,11.30
2022-08-29T06:38:32.102Z,10.95
2022-08-29T06:43:35.555Z,10.24
2022-08-29T06:48:40.037Z,10.15
2022-08-29T06:53:43.180Z,10.27
2022-08-29T06:58:46.599Z,9.72
2022-08-29T07:03:53.060Z,9.79
2022-08-29T07:08:56.618Z,9.38
2022-08-29T07:14:02.326Z,9.82
2022-08-29T07:19:08.393Z,9.56
2022-08-29T07:24:11.529Z,9.24
2022-08-29T07:29:17.625Z,7.74
2022-08-29T07:34:22.286Z,6.22
2022-08-29T07:39:25.603Z,6.20
2022-08-29T07:44:30.263Z,6.66
2022-08-29T07:49:42.225Z,6.46
2022-08-29T07:54:45.147Z,6.97
2022-08-29T07:59:48.081Z,7.44
2022-08-29T08:04:52.684Z,7.24
2022-08-29T08:09:55.655Z,7.32
2022-08-29T08:14:58.682Z,7.21
2022-08-29T08:20:09.156Z,7.34
2022-08-29T08:25:14.085Z,7.61
2022-08-29T08:30:17.757Z,7.57
2022-08-29T08:35:24.392Z,7.84
2022-08-29T08:40:28.944Z,8.18
2022-08-29T08:45:38.071Z,8.37
2022-08-29T08:50:45.672Z,8.55
2022-08-29T08:55:51.041Z,8.25
2022-08-29T09:00:58.636Z,8.37
2022-08-29T09:06:13.310Z,8.00
2022-08-29T09:11:24.608Z,7.31
2022-08-29T09:16:31.804Z,6.51
2022-08-29T09:21:48.616Z,5.76
2022-08-29T09:26:51.631Z,5.43
2022-08-29T09:32:11.243Z,4.53
2022-08-29T09:37:25.683Z,3.35
2022-08-29T09:42:35.772Z,2.37
2022-08-29T09:47:38.805Z,1.10
2022-08-29T09:52:52.335Z,0.59
2022-08-29T09:57:59.905Z,0.04
2022-08-29T10:03:05.554Z,-1.41
2022-08-29T10:08:26.962Z,-1.30
2022-08-29T10:13:36.222Z,-1.65
2022-08-29T10:18:45.047Z,-2.36
2022-08-29T10:24:14.609Z,-1.78
2022-08-29T10:29:36.551Z,-3.25
2022-08-29T10:34:56.217Z,-3.15
2022-08-29T10:40:06.616Z,-2.99
2022-08-29T10:45:15.612Z,-3.27
2022-08-29T10:50:43.439Z,-2.90
2022-08-29T10:55:54.860Z,-2.41
2022-08-29T11:01:06.930Z,-3.37
2022-08-29T11:06:17.983Z,-3.99
2022-08-29T11:11:30.336Z,-4.59
2022-08-29T11:16:38.826Z,-5.26
2022-08-29T11:21:47.313Z,-4.84
2022-08-29T11:27:00.645Z,-5.97
2022-08-29T11:32:10.080Z,118.70
2022-08-29T11:37:54.819Z,118.10
2022-08-29T11:43:01.497Z,118.55
2022-08-29T11:48:19.777Z,117.95
2022-08-29T11:53:37.733Z,118.33
2022-08-29T11:58:46.378Z,116.67
2022-08-29T12:03:49.652Z,117.02
2022-08-29T12:09:02.868Z,115.66
2022-08-29T12:14:08.982Z,115.22
2022-08-29T12:19:11.982Z,116.58
2022-08-29T12:24:32.094Z,116.57
2022-08-29T12:29:44.733Z,115.93
2022-08-29T12:35:01.881Z,115.40
2022-08-29T12:40:22.715Z,115.12
2022-08-29T12:45:30.485Z,113.74
2022-08-29T12:50:36.934Z,113.59
2022-08-29T12:55:42.483Z,113.45
2022-08-29T13:00:52.974Z,113.45
2022-08-29T13:06:03.927Z,113.95
2022-08-29T13:11:09.089Z,113.32
2022-08-29T13:16:25.963Z,113.06
2022-08-29T13:21:32.003Z,111.87
2022-08-29T13:26:36.489Z,112.48
2022-08-29T13:31:41.518Z,111.72
2022-08-29T13:36:54.814Z,112.77
2022-08-29T13:42:24.147Z,111.13
2022-08-29T13:47:31.052Z,111.81
2022-08-29T13:52:34.454Z,110.78
2022-08-29T13:57:40.541Z,109.31
2022-08-29T14:02:46.473Z,106.65
2022-08-29T14:07:49.919Z,107.72
2022-08-29T14:12:53.035Z,110.44
2022-08-29T14:17:58.606Z,107.19
2022-08-29T14:23:01.482Z,107.32
2022-08-29T14:28:04.534Z,107.48
2022-08-29T14:33:09.135Z,106.69
2022-08-29T14:38:12.321Z,109.04
2022-08-29T14:43:15.268Z,110.08
2022-08-29T14:48:20.129Z,109.38
2022-08-29T14:53:23.628Z,108.04
2022-08-29T14:58:26.673Z,109.25
2022-08-29T15:03:31.418Z,106.65
2022-08-29T15:08:34.303Z,106.63
2022-08-29T15:13:37.447Z,106.08
2022-08-29T15:19:24.936Z,109.34
2022-08-29T15:24:06.065Z,106.65
2022-08-29T15:29:09.200Z,107.48
2022-08-29T15:34:14.448Z,107.80
2022-08-29T15:39:17.599Z,107.87
2022-08-29T15:44:20.433Z,107.71
2022-08-29T15:49:25.934Z,107.68
2022-08-29T15:54:28.880Z,107.82
2022-08-29T15:59:56.619Z,109.94
2022-08-29T16:04:57.561Z,109.43
2022-08-29T16:10:03.605Z,110.39
2022-08-29T16:15:10.049Z,111.18
2022-08-29T16:20:14.823Z,111.26
2022-08-29T16:25:18.053Z,112.07
2022-08-29T16:30:21.550Z,112.55
2022-08-29T16:35:26.976Z,113.11
2022-08-29T16:40:29.885Z,113.69
2022-08-29T16:45:33.541Z,115.36
2022-08-29T16:50:38.660Z,115.44
2022-08-29T16:55:41.832Z,114.80
2022-08-29T17:00:45.253Z,115.78
2022-08-29T17:05:49.885Z,115.57
2022-08-29T17:10:53.093Z,116.42
2022-08-29T17:15:56.108Z,116.94
2022-08-29T17:21:00.607Z,116.99
2022-08-29T17:26:06.606Z,118.21
2022-08-29T17:31:09.791Z,-5.92
2022-08-29T17:36:14.713Z,-4.75
2022-08-29T17:41:19.550Z,-4.15
2022-08-29T17:46:24.633Z,-3.56
2022-08-29T17:51:29.195Z,-3.06
2022-08-29T17:56:44.352Z,-2.73
2022-08-29T18:01:48.082Z,-2.44
2022-08-29T18:06:53.421Z,-2.00
2022-08-29T18:11:58.510Z,-1.37
2022-08-29T18:17:01.451Z,-1.03
2022-08-29T18:22:06.529Z,-0.78
2022-08-29T18:27:09.682Z,-0.42
2022-08-29T18:32:12.538Z,-0.07
2022-08-29T18:37:16.939Z,-0.20
2022-08-29T18:42:38.833Z,0.06
2022-08-29T18:47:42.798Z,0.74
2022-08-29T18:52:47.116Z,1.51
2022-08-29T18:57:52.337Z,1.84
2022-08-29T19:02:56.782Z,2.16
2022-08-29T19:08:02.267Z,2.10
2022-08-29T19:13:08.320Z,2.35
2022-08-29T19:18:11.220Z,2.58
2022-08-29T19:23:16.866Z,2.44
2022-08-29T19:28:20.995Z,3.09
2022-08-29T19:33:24.132Z,3.14
2022-08-29T19:38:30.453Z,3.67
2022-08-29T19:43:34.873Z,3.67
2022-08-29T19:48:38.910Z,4.18
2022-08-29T19:53:44.248Z,3.94
2022-08-29T19:58:49.407Z,3.99
2022-08-29T20:03:53.538Z,4.28
2022-08-29T20:08:58.790Z,4.78
2022-08-29T20:14:02.353Z,5.05
2022-08-29T20:19:05.924Z,5.02
2022-08-29T20:24:11.032Z,5.34
2022-08-29T20:29:19.009Z,5.36
2022-08-29T20:34:22.443Z,5.04
2022-08-29T20:39:27.254Z,5.31
2022-08-29T20:44:34.195Z,5.23
2022-08-29T20:49:37.655Z,5.96
2022-08-29T20:54:46.233Z,5.64
2022-08-29T20:59:49.682Z,6.05
2022-08-29T21:05:11.029Z,6.09
2022-08-29T21:10:15.429Z,6.36
2022-08-29T21:15:18.538Z,6.25
2022-08-29T21:20:21.554Z,6.41
2022-08-29T21:25:25.910Z,6.25
2022-08-29T21:30:30.333Z,6.01
2022-08-29T21:35:33.942Z,6.25
2022-08-29T21:40:50.571Z,6.45
2022-08-29T21:45:54.242Z,5.96
2022-08-29T21:50:57.600Z,6.41
2022-08-29T21:56:02.053Z,6.55
2022-08-29T22:01:05.330Z,6.67
2022-08-29T22:06:11.310Z,6.78
2022-08-29T22:11:22.966Z,6.76
2022-08-29T22:16:32.166Z,6.70
2022-08-29T22:21:38.786Z,6.51
2022-08-29T22:26:43.638Z,6.91
2022-08-29T22:31:46.977Z,7.12
2022-08-29T22:36:49.898Z,6.70
2022-08-29T22:41:55.219Z,6.94
2022-08-29T22:46:58.882Z,6.80
2022-08-29T22:52:02.447Z,7.46
2022-08-29T22:57:09.544Z,7.60
2022-08-29T23:02:13.125Z,7.56
2022-08-29T23:07:16.322Z,7.37
2022-08-29T23:12:20.673Z,8.09
2022-08-29T23:17:23.738Z,8.45
2022-08-29T23:22:26.927Z,7.63
2022-08-29T23:27:33.055Z,7.57
2022-08-29T23:32:36.513Z,7.89
2022-08-29T23:37:39.807Z,8.42
2022-08-29T23:42:44.159Z,8.27
2022-08-29T23:47:47.111Z,8.03
2022-08-29T23:52:50.162Z,7.99
2022-08-29T23:57:54.952Z,8.34
